sensor_id;sensor_type;location;lat;lon;timestamp;P1;durP1;ratioP1;P2;durP2;ratioP2
52360;SDS011;38294;42.966;1.608;2023-03-23T03:37:43;4.60;;;3.65;;
52360;SDS011;38294;42.966;1.608;2023-03-23T03:40:11;6.38;;;4.03;;
52360;SDS011;38294;42.966;1.608;2023-03-23T03:42:39;6.22;;;3.60;;
52360;SDS011;38294;42.966;1.608;2023-03-23T03:45:06;6.10;;;4.13;;
52360;SDS011;38294;42.966;1.608;2023-03-23T03:47:33;7.50;;;3.65;;
52360;SDS011;38294;42.966;1.608;2023-03-23T03:49:59;9.90;;;3.90;;
52360;SDS011;38294;42.966;1.608;2023-03-23T03:52:25;6.50;;;3.65;;
52360;SDS011;38294;42.966;1.608;2023-03-23T03:54:52;9.70;;;6.50;;
52360;SDS011;38294;42.966;1.608;2023-03-23T03:57:18;31.20;;;23.52;;
52360;SDS011;38294;42.966;1.608;2023-03-23T03:59:44;53.88;;;30.40;;
52360;SDS011;38294;42.966;1.608;2023-03-23T04:02:10;25.65;;;13.50;;
52360;SDS011;38294;42.966;1.608;2023-03-23T04:04:39;57.85;;;30.83;;
52360;SDS011;38294;42.966;1.608;2023-03-23T04:07:06;18.98;;;7.72;;
52360;SDS011;38294;42.966;1.608;2023-03-23T04:09:35;11.95;;;8.18;;
52360;SDS011;38294;42.966;1.608;2023-03-23T04:12:02;15.55;;;9.60;;
52360;SDS011;38294;42.966;1.608;2023-03-23T04:14:28;8.50;;;5.53;;
52360;SDS011;38294;42.966;1.608;2023-03-23T04:16:53;10.77;;;6.50;;
52360;SDS011;38294;42.966;1.608;2023-03-23T04:19:22;7.82;;;5.28;;
52360;SDS011;38294;42.966;1.608;2023-03-23T04:21:48;6.68;;;4.65;;
52360;SDS011;38294;42.966;1.608;2023-03-23T04:24:14;7.78;;;4.20;;
52360;SDS011;38294;42.966;1.608;2023-03-23T04:26:40;6.03;;;3.58;;
52360;SDS011;38294;42.966;1.608;2023-03-23T04:29:07;8.60;;;3.63;;
52360;SDS011;38294;42.966;1.608;2023-03-23T04:31:33;7.35;;;3.67;;
52360;SDS011;38294;42.966;1.608;2023-03-23T04:33:59;6.50;;;3.67;;
52360;SDS011;38294;42.966;1.608;2023-03-23T04:36:26;6.20;;;3.70;;
52360;SDS011;38294;42.966;1.608;2023-03-23T04:38:54;9.35;;;4.53;;
52360;SDS011;38294;42.966;1.608;2023-03-23T04:41:20;7.43;;;4.28;;
52360;SDS011;38294;42.966;1.608;2023-03-23T04:43:47;8.27;;;4.20;;
52360;SDS011;38294;42.966;1.608;2023-03-23T04:46:17;5.93;;;3.42;;
52360;SDS011;38294;42.966;1.608;2023-03-23T04:48:44;4.88;;;3.30;;
52360;SDS011;38294;42.966;1.608;2023-03-23T04:51:10;4.03;;;2.95;;
52360;SDS011;38294;42.966;1.608;2023-03-23T04:53:39;4.55;;;3.30;;
52360;SDS011;38294;42.966;1.608;2023-03-23T04:56:06;6.18;;;2.80;;
52360;SDS011;38294;42.966;1.608;2023-03-23T04:58:32;12.02;;;3.47;;
52360;SDS011;38294;42.966;1.608;2023-03-23T05:01:00;5.75;;;3.40;;
52360;SDS011;38294;42.966;1.608;2023-03-23T05:03:26;5.90;;;2.60;;
52360;SDS011;38294;42.966;1.608;2023-03-23T05:05:52;6.38;;;3.17;;
52360;SDS011;38294;42.966;1.608;2023-03-23T05:08:24;6.15;;;3.00;;
52360;SDS011;38294;42.966;1.608;2023-03-23T05:10:51;7.78;;;3.70;;
52360;SDS011;38294;42.966;1.608;2023-03-23T05:13:17;7.68;;;3.83;;
52360;SDS011;38294;42.966;1.608;2023-03-23T05:15:43;7.25;;;3.70;;
52360;SDS011;38294;42.966;1.608;2023-03-23T05:18:08;8.77;;;3.28;;
52360;SDS011;38294;42.966;1.608;2023-03-23T05:20:36;7.68;;;3.35;;
52360;SDS011;38294;42.966;1.608;2023-03-23T05:23:02;10.73;;;4.38;;
52360;SDS011;38294;42.966;1.608;2023-03-23T05:25:27;8.35;;;3.70;;
52360;SDS011;38294;42.966;1.608;2023-03-23T05:27:53;5.38;;;3.53;;
52360;SDS011;38294;42.966;1.608;2023-03-23T05:30:21;4.63;;;3.80;;
52360;SDS011;38294;42.966;1.608;2023-03-23T05:32:48;6.32;;;3.97;;
52360;SDS011;38294;42.966;1.608;2023-03-23T05:35:17;6.28;;;4.05;;
52360;SDS011;38294;42.966;1.608;2023-03-23T05:37:44;6.28;;;3.70;;
52360;SDS011;38294;42.966;1.608;2023-03-23T05:40:11;6.13;;;3.78;;
52360;SDS011;38294;42.966;1.608;2023-03-23T05:42:38;6.65;;;4.28;;
52360;SDS011;38294;42.966;1.608;2023-03-23T05:45:08;9.15;;;3.53;;
52360;SDS011;38294;42.966;1.608;2023-03-23T05:47:36;5.88;;;3.88;;
52360;SDS011;38294;42.966;1.608;2023-03-23T05:50:02;7.32;;;3.83;;
52360;SDS011;38294;42.966;1.608;2023-03-23T05:52:28;9.23;;;3.63;;
52360;SDS011;38294;42.966;1.608;2023-03-23T05:54:53;7.05;;;3.50;;
52360;SDS011;38294;42.966;1.608;2023-03-23T05:57:19;4.80;;;3.60;;
52360;SDS011;38294;42.966;1.608;2023-03-23T05:59:47;6.05;;;3.60;;
52360;SDS011;38294;42.966;1.608;2023-03-23T06:02:13;10.13;;;4.00;;
52360;SDS011;38294;42.966;1.608;2023-03-23T06:04:39;6.03;;;3.85;;
52360;SDS011;38294;42.966;1.608;2023-03-23T06:07:06;5.40;;;4.10;;
52360;SDS011;38294;42.966;1.608;2023-03-23T06:09:32;7.70;;;4.80;;
52360;SDS011;38294;42.966;1.608;2023-03-23T06:11:58;8.02;;;4.35;;
52360;SDS011;38294;42.966;1.608;2023-03-23T06:14:23;10.45;;;6.22;;
52360;SDS011;38294;42.966;1.608;2023-03-23T06:16:49;11.32;;;6.00;;
52360;SDS011;38294;42.966;1.608;2023-03-23T06:19:15;7.38;;;3.97;;
52360;SDS011;38294;42.966;1.608;2023-03-23T06:21:41;4.63;;;2.95;;
52360;SDS011;38294;42.966;1.608;2023-03-23T06:24:08;6.07;;;3.42;;
52360;SDS011;38294;42.966;1.608;2023-03-23T06:26:35;5.00;;;3.30;;
52360;SDS011;38294;42.966;1.608;2023-03-23T06:29:03;6.03;;;3.15;;
52360;SDS011;38294;42.966;1.608;2023-03-23T06:31:43;8.98;;;3.63;;
52360;SDS011;38294;42.966;1.608;2023-03-23T06:34:12;11.93;;;3.90;;
52360;SDS011;38294;42.966;1.608;2023-03-23T06:36:38;5.88;;;3.63;;
52360;SDS011;38294;42.966;1.608;2023-03-23T06:39:04;5.65;;;3.67;;
52360;SDS011;38294;42.966;1.608;2023-03-23T06:41:31;7.43;;;3.92;;
52360;SDS011;38294;42.966;1.608;2023-03-23T06:43:58;9.45;;;3.78;;
52360;SDS011;38294;42.966;1.608;2023-03-23T06:46:24;4.80;;;2.72;;
52360;SDS011;38294;42.966;1.608;2023-03-23T06:48:50;13.48;;;4.43;;
52360;SDS011;38294;42.966;1.608;2023-03-23T06:51:16;9.20;;;3.90;;
52360;SDS011;38294;42.966;1.608;2023-03-23T06:53:42;9.07;;;3.88;;
52360;SDS011;38294;42.966;1.608;2023-03-23T06:56:08;8.10;;;3.58;;
52360;SDS011;38294;42.966;1.608;2023-03-23T06:58:34;7.28;;;3.33;;
52360;SDS011;38294;42.966;1.608;2023-03-23T07:01:00;7.70;;;3.25;;
52360;SDS011;38294;42.966;1.608;2023-03-23T07:03:26;7.53;;;3.53;;
52360;SDS011;38294;42.966;1.608;2023-03-23T07:05:53;9.00;;;3.92;;
52360;SDS011;38294;42.966;1.608;2023-03-23T07:08:19;9.70;;;3.80;;
52360;SDS011;38294;42.966;1.608;2023-03-23T07:10:45;9.90;;;4.28;;
52360;SDS011;38294;42.966;1.608;2023-03-23T07:13:11;11.43;;;4.18;;
52360;SDS011;38294;42.966;1.608;2023-03-23T07:15:38;7.90;;;4.43;;
52360;SDS011;38294;42.966;1.608;2023-03-23T07:18:04;10.50;;;4.72;;
52360;SDS011;38294;42.966;1.608;2023-03-23T07:20:29;11.52;;;4.65;;
52360;SDS011;38294;42.966;1.608;2023-03-23T07:22:55;8.30;;;4.72;;
52360;SDS011;38294;42.966;1.608;2023-03-23T07:25:21;7.50;;;4.45;;
52360;SDS011;38294;42.966;1.608;2023-03-23T07:27:46;10.57;;;4.65;;
52360;SDS011;38294;42.966;1.608;2023-03-23T07:30:12;8.45;;;4.30;;
52360;SDS011;38294;42.966;1.608;2023-03-23T07:32:39;7.78;;;4.28;;
52360;SDS011;38294;42.966;1.608;2023-03-23T07:35:06;7.18;;;4.45;;
52360;SDS011;38294;42.966;1.608;2023-03-23T07:37:33;11.10;;;4.10;;
52360;SDS011;38294;42.966;1.608;2023-03-23T07:39:59;8.68;;;4.38;;
52360;SDS011;38294;42.966;1.608;2023-03-23T07:42:24;8.25;;;4.10;;
52360;SDS011;38294;42.966;1.608;2023-03-23T07:44:50;10.40;;;5.05;;
52360;SDS011;38294;42.966;1.608;2023-03-23T07:47:15;8.85;;;5.00;;
52360;SDS011;38294;42.966;1.608;2023-03-23T07:49:42;6.65;;;4.63;;
52360;SDS011;38294;42.966;1.608;2023-03-23T07:52:08;10.13;;;5.30;;
52360;SDS011;38294;42.966;1.608;2023-03-23T07:54:36;9.93;;;5.00;;
52360;SDS011;38294;42.966;1.608;2023-03-23T07:57:01;10.00;;;5.53;;
52360;SDS011;38294;42.966;1.608;2023-03-23T07:59:27;8.02;;;4.30;;
52360;SDS011;38294;42.966;1.608;2023-03-23T08:01:53;7.30;;;4.55;;
52360;SDS011;38294;42.966;1.608;2023-03-23T08:04:19;7.25;;;4.10;;
52360;SDS011;38294;42.966;1.608;2023-03-23T08:06:44;6.65;;;3.72;;
52360;SDS011;38294;42.966;1.608;2023-03-23T08:09:10;6.45;;;3.95;;
52360;SDS011;38294;42.966;1.608;2023-03-23T08:11:37;7.10;;;4.45;;
52360;SDS011;38294;42.966;1.608;2023-03-23T08:14:03;7.22;;;4.95;;
52360;SDS011;38294;42.966;1.608;2023-03-23T08:16:30;7.07;;;4.40;;
52360;SDS011;38294;42.966;1.608;2023-03-23T08:18:56;8.18;;;5.00;;
52360;SDS011;38294;42.966;1.608;2023-03-23T08:21:22;6.63;;;4.32;;
52360;SDS011;38294;42.966;1.608;2023-03-23T08:23:47;7.38;;;3.63;;
52360;SDS011;38294;42.966;1.608;2023-03-23T08:26:13;7.18;;;3.90;;
52360;SDS011;38294;42.966;1.608;2023-03-23T08:28:40;8.65;;;4.05;;
52360;SDS011;38294;42.966;1.608;2023-03-23T08:31:09;5.25;;;3.85;;
52360;SDS011;38294;42.966;1.608;2023-03-23T08:33:37;6.35;;;3.92;;
52360;SDS011;38294;42.966;1.608;2023-03-23T08:36:03;6.95;;;4.40;;
52360;SDS011;38294;42.966;1.608;2023-03-23T08:38:29;6.47;;;3.90;;
52360;SDS011;38294;42.966;1.608;2023-03-23T08:40:59;7.20;;;3.80;;
52360;SDS011;38294;42.966;1.608;2023-03-23T08:43:26;6.93;;;3.90;;
52360;SDS011;38294;42.966;1.608;2023-03-23T08:45:52;8.15;;;3.30;;
52360;SDS011;38294;42.966;1.608;2023-03-23T08:48:18;5.63;;;3.83;;
52360;SDS011;38294;42.966;1.608;2023-03-23T08:50:44;7.00;;;3.95;;
52360;SDS011;38294;42.966;1.608;2023-03-23T08:53:09;8.25;;;4.18;;
52360;SDS011;38294;42.966;1.608;2023-03-23T08:55:36;6.50;;;4.00;;
52360;SDS011;38294;42.966;1.608;2023-03-23T08:58:02;5.80;;;4.22;;
52360;SDS011;38294;42.966;1.608;2023-03-23T09:00:30;9.32;;;4.72;;
52360;SDS011;38294;42.966;1.608;2023-03-23T09:02:56;7.80;;;4.25;;
52360;SDS011;38294;42.966;1.608;2023-03-23T09:05:23;9.43;;;5.43;;
52360;SDS011;38294;42.966;1.608;2023-03-23T09:07:51;10.85;;;4.60;;
52360;SDS011;38294;42.966;1.608;2023-03-23T09:10:17;5.95;;;3.90;;
52360;SDS011;38294;42.966;1.608;2023-03-23T09:12:44;7.35;;;3.97;;
52360;SDS011;38294;42.966;1.608;2023-03-23T09:15:12;5.68;;;3.33;;
52360;SDS011;38294;42.966;1.608;2023-03-23T09:17:49;7.65;;;4.13;;
52360;SDS011;38294;42.966;1.608;2023-03-23T09:20:18;5.55;;;3.80;;
52360;SDS011;38294;42.966;1.608;2023-03-23T09:22:47;6.38;;;4.03;;
52360;SDS011;38294;42.966;1.608;2023-03-23T09:25:16;7.05;;;4.30;;
52360;SDS011;38294;42.966;1.608;2023-03-23T09:27:50;7.60;;;4.60;;
52360;SDS011;38294;42.966;1.608;2023-03-23T09:30:19;6.90;;;5.00;;
52360;SDS011;38294;42.966;1.608;2023-03-23T09:32:45;11.63;;;5.95;;
52360;SDS011;38294;42.966;1.608;2023-03-23T09:35:13;10.73;;;5.32;;
52360;SDS011;38294;42.966;1.608;2023-03-23T09:37:42;4.97;;;4.20;;
52360;SDS011;38294;42.966;1.608;2023-03-23T09:40:15;7.85;;;4.53;;
52360;SDS011;38294;42.966;1.608;2023-03-23T09:50:57;7.50;;;4.35;;
52360;SDS011;38294;42.966;1.608;2023-03-23T09:53:47;5.68;;;4.20;;
52360;SDS011;38294;42.966;1.608;2023-03-23T10:03:46;7.30;;;3.60;;
52360;SDS011;38294;42.966;1.608;2023-03-23T10:06:13;5.60;;;4.28;;
52360;SDS011;38294;42.966;1.608;2023-03-23T10:08:47;6.53;;;3.75;;
52360;SDS011;38294;42.966;1.608;2023-03-23T10:11:31;5.28;;;3.85;;
52360;SDS011;38294;42.966;1.608;2023-03-23T10:17:07;6.97;;;4.10;;
52360;SDS011;38294;42.966;1.608;2023-03-23T10:22:26;5.22;;;3.50;;
52360;SDS011;38294;42.966;1.608;2023-03-23T10:25:03;5.95;;;3.80;;
52360;SDS011;38294;42.966;1.608;2023-03-23T10:27:45;6.88;;;4.03;;
52360;SDS011;38294;42.966;1.608;2023-03-23T10:35:17;5.63;;;3.60;;
52360;SDS011;38294;42.966;1.608;2023-03-23T10:38:06;7.03;;;3.72;;
52360;SDS011;38294;42.966;1.608;2023-03-23T10:40:50;6.78;;;4.03;;
52360;SDS011;38294;42.966;1.608;2023-03-23T10:43:20;5.57;;;3.95;;
52360;SDS011;38294;42.966;1.608;2023-03-23T10:45:48;5.57;;;4.00;;
52360;SDS011;38294;42.966;1.608;2023-03-23T10:48:31;4.72;;;3.65;;
52360;SDS011;38294;42.966;1.608;2023-03-23T10:51:03;5.30;;;3.63;;
52360;SDS011;38294;42.966;1.608;2023-03-23T10:53:37;4.43;;;3.40;;
52360;SDS011;38294;42.966;1.608;2023-03-23T10:56:34;4.90;;;3.83;;
52360;SDS011;38294;42.966;1.608;2023-03-23T10:59:10;5.78;;;4.03;;
52360;SDS011;38294;42.966;1.608;2023-03-23T11:01:54;5.47;;;4.18;;
52360;SDS011;38294;42.966;1.608;2023-03-23T11:04:23;5.13;;;3.60;;
52360;SDS011;38294;42.966;1.608;2023-03-23T11:06:51;5.82;;;4.00;;
52360;SDS011;38294;42.966;1.608;2023-03-23T11:09:21;6.00;;;3.78;;
52360;SDS011;38294;42.966;1.608;2023-03-23T11:11:58;4.43;;;3.25;;
52360;SDS011;38294;42.966;1.608;2023-03-23T11:14:31;6.68;;;3.05;;
52360;SDS011;38294;42.966;1.608;2023-03-23T11:17:03;4.65;;;3.42;;
52360;SDS011;38294;42.966;1.608;2023-03-23T11:19:32;5.32;;;3.58;;
52360;SDS011;38294;42.966;1.608;2023-03-23T11:24:30;4.63;;;3.00;;
52360;SDS011;38294;42.966;1.608;2023-03-23T11:26:58;5.47;;;3.33;;
52360;SDS011;38294;42.966;1.608;2023-03-23T11:29:25;4.93;;;3.17;;
52360;SDS011;38294;42.966;1.608;2023-03-23T11:31:53;5.20;;;3.13;;
52360;SDS011;38294;42.966;1.608;2023-03-23T11:34:32;6.13;;;2.70;;
52360;SDS011;38294;42.966;1.608;2023-03-23T11:37:13;4.32;;;3.30;;
52360;SDS011;38294;42.966;1.608;2023-03-23T11:42:24;4.75;;;2.92;;
52360;SDS011;38294;42.966;1.608;2023-03-23T11:45:18;5.50;;;3.17;;
52360;SDS011;38294;42.966;1.608;2023-03-23T11:51:16;4.22;;;2.80;;
52360;SDS011;38294;42.966;1.608;2023-03-23T11:54:09;4.18;;;2.70;;
52360;SDS011;38294;42.966;1.608;2023-03-23T11:56:47;5.10;;;3.20;;
52360;SDS011;38294;42.966;1.608;2023-03-23T11:59:14;5.15;;;3.25;;
52360;SDS011;38294;42.966;1.608;2023-03-23T12:01:56;4.95;;;2.85;;
52360;SDS011;38294;42.966;1.608;2023-03-23T12:07:09;3.90;;;3.10;;
52360;SDS011;38294;42.966;1.608;2023-03-23T12:10:08;4.78;;;3.00;;
52360;SDS011;38294;42.966;1.608;2023-03-23T12:23:41;4.95;;;3.40;;
52360;SDS011;38294;42.966;1.608;2023-03-23T12:26:28;3.95;;;3.00;;
52360;SDS011;38294;42.966;1.608;2023-03-23T12:34:40;3.75;;;2.80;;
52360;SDS011;38294;42.966;1.608;2023-03-23T12:37:31;4.82;;;2.95;;
52360;SDS011;38294;42.966;1.608;2023-03-23T12:43:45;3.10;;;2.72;;
52360;SDS011;38294;42.966;1.608;2023-03-23T12:46:02;4.15;;;2.85;;
52360;SDS011;38294;42.966;1.608;2023-03-23T12:48:34;3.20;;;2.70;;
52360;SDS011;38294;42.966;1.608;2023-03-23T12:54:35;5.53;;;2.80;;
52360;SDS011;38294;42.966;1.608;2023-03-23T12:57:17;3.97;;;2.67;;
52360;SDS011;38294;42.966;1.608;2023-03-23T13:02:39;3.80;;;2.80;;
52360;SDS011;38294;42.966;1.608;2023-03-23T13:05:11;5.82;;;2.85;;
52360;SDS011;38294;42.966;1.608;2023-03-23T13:07:56;5.07;;;3.15;;
52360;SDS011;38294;42.966;1.608;2023-03-23T13:10:42;5.03;;;2.92;;
52360;SDS011;38294;42.966;1.608;2023-03-23T13:13:23;2.60;;;2.40;;
52360;SDS011;38294;42.966;1.608;2023-03-23T13:15:56;8.80;;;3.00;;
52360;SDS011;38294;42.966;1.608;2023-03-23T13:18:29;5.38;;;3.08;;
52360;SDS011;38294;42.966;1.608;2023-03-23T13:23:39;5.32;;;3.22;;
52360;SDS011;38294;42.966;1.608;2023-03-23T13:26:16;3.63;;;2.83;;
52360;SDS011;38294;42.966;1.608;2023-03-23T13:31:26;3.88;;;3.47;;
52360;SDS011;38294;42.966;1.608;2023-03-23T13:34:05;7.63;;;3.63;;
52360;SDS011;38294;42.966;1.608;2023-03-23T13:36:43;5.70;;;3.40;;
52360;SDS011;38294;42.966;1.608;2023-03-23T13:39:27;3.90;;;2.97;;
52360;SDS011;38294;42.966;1.608;2023-03-23T13:42:17;5.95;;;3.38;;
52360;SDS011;38294;42.966;1.608;2023-03-23T13:50:03;3.97;;;3.20;;
52360;SDS011;38294;42.966;1.608;2023-03-23T14:05:44;5.40;;;3.90;;
52360;SDS011;38294;42.966;1.608;2023-03-23T14:10:57;8.00;;;4.55;;
52360;SDS011;38294;42.966;1.608;2023-03-23T14:16:23;6.85;;;4.40;;
52360;SDS011;38294;42.966;1.608;2023-03-23T14:18:52;6.80;;;4.32;;
52360;SDS011;38294;42.966;1.608;2023-03-23T14:24:10;8.70;;;4.70;;
52360;SDS011;38294;42.966;1.608;2023-03-23T14:26:37;7.72;;;4.47;;
52360;SDS011;38294;42.966;1.608;2023-03-23T14:29:03;7.13;;;4.40;;
52360;SDS011;38294;42.966;1.608;2023-03-23T14:31:30;6.40;;;4.40;;
52360;SDS011;38294;42.966;1.608;2023-03-23T14:34:03;8.15;;;4.88;;
52360;SDS011;38294;42.966;1.608;2023-03-23T14:36:36;6.15;;;4.38;;
52360;SDS011;38294;42.966;1.608;2023-03-23T14:39:04;6.47;;;4.47;;
52360;SDS011;38294;42.966;1.608;2023-03-23T14:41:36;8.13;;;4.60;;
52360;SDS011;38294;42.966;1.608;2023-03-23T14:44:03;11.88;;;4.68;;
52360;SDS011;38294;42.966;1.608;2023-03-23T14:46:33;7.85;;;4.80;;
52360;SDS011;38294;42.966;1.608;2023-03-23T14:49:00;6.30;;;4.57;;
52360;SDS011;38294;42.966;1.608;2023-03-23T14:51:28;6.90;;;4.45;;
52360;SDS011;38294;42.966;1.608;2023-03-23T14:53:53;6.88;;;4.90;;
52360;SDS011;38294;42.966;1.608;2023-03-23T14:56:20;6.93;;;4.70;;
52360;SDS011;38294;42.966;1.608;2023-03-23T14:58:51;6.20;;;4.57;;
52360;SDS011;38294;42.966;1.608;2023-03-23T15:01:18;7.30;;;4.72;;
52360;SDS011;38294;42.966;1.608;2023-03-23T15:04:02;8.18;;;4.78;;
52360;SDS011;38294;42.966;1.608;2023-03-23T15:06:39;8.38;;;5.30;;
52360;SDS011;38294;42.966;1.608;2023-03-23T15:09:13;5.20;;;4.70;;
52360;SDS011;38294;42.966;1.608;2023-03-23T15:11:50;7.20;;;4.68;;
52360;SDS011;38294;42.966;1.608;2023-03-23T15:14:32;6.57;;;4.78;;
52360;SDS011;38294;42.966;1.608;2023-03-23T15:17:00;9.52;;;5.03;;
52360;SDS011;38294;42.966;1.608;2023-03-23T15:19:28;7.15;;;5.18;;
52360;SDS011;38294;42.966;1.608;2023-03-23T15:24:45;8.73;;;4.70;;
52360;SDS011;38294;42.966;1.608;2023-03-23T15:27:15;11.38;;;5.63;;
52360;SDS011;38294;42.966;1.608;2023-03-23T15:29:55;8.98;;;4.90;;
52360;SDS011;38294;42.966;1.608;2023-03-23T15:32:23;8.35;;;5.25;;
52360;SDS011;38294;42.966;1.608;2023-03-23T15:34:52;13.10;;;5.60;;
52360;SDS011;38294;42.966;1.608;2023-03-23T15:37:19;9.20;;;5.10;;
52360;SDS011;38294;42.966;1.608;2023-03-23T15:40:13;8.00;;;4.88;;
52360;SDS011;38294;42.966;1.608;2023-03-23T15:42:41;5.65;;;4.78;;
52360;SDS011;38294;42.966;1.608;2023-03-23T15:52:50;10.25;;;5.35;;
52360;SDS011;38294;42.966;1.608;2023-03-23T15:55:24;9.70;;;5.25;;
52360;SDS011;38294;42.966;1.608;2023-03-23T15:57:54;8.75;;;5.45;;
52360;SDS011;38294;42.966;1.608;2023-03-23T16:00:22;9.00;;;5.50;;
52360;SDS011;38294;42.966;1.608;2023-03-23T16:02:54;8.52;;;5.30;;
52360;SDS011;38294;42.966;1.608;2023-03-23T16:05:21;8.05;;;4.82;;
52360;SDS011;38294;42.966;1.608;2023-03-23T16:07:47;10.00;;;5.18;;
52360;SDS011;38294;42.966;1.608;2023-03-23T16:10:18;8.82;;;4.93;;
52360;SDS011;38294;42.966;1.608;2023-03-23T16:12:46;10.05;;;5.82;;
52360;SDS011;38294;42.966;1.608;2023-03-23T16:15:12;9.85;;;6.05;;
52360;SDS011;38294;42.966;1.608;2023-03-23T16:17:39;9.07;;;5.88;;
52360;SDS011;38294;42.966;1.608;2023-03-23T16:20:23;11.95;;;5.95;;
52360;SDS011;38294;42.966;1.608;2023-03-23T16:22:50;11.65;;;5.63;;
52360;SDS011;38294;42.966;1.608;2023-03-23T16:25:16;9.88;;;6.65;;
52360;SDS011;38294;42.966;1.608;2023-03-23T16:27:43;12.90;;;6.85;;
52360;SDS011;38294;42.966;1.608;2023-03-23T16:30:12;10.95;;;6.22;;
52360;SDS011;38294;42.966;1.608;2023-03-23T16:32:40;13.35;;;6.93;;
52360;SDS011;38294;42.966;1.608;2023-03-23T16:35:06;11.48;;;6.30;;
52360;SDS011;38294;42.966;1.608;2023-03-23T16:37:32;15.57;;;6.93;;
52360;SDS011;38294;42.966;1.608;2023-03-23T16:39:58;11.60;;;6.80;;
52360;SDS011;38294;42.966;1.608;2023-03-23T16:42:25;12.50;;;6.65;;
52360;SDS011;38294;42.966;1.608;2023-03-23T16:44:50;16.00;;;7.47;;
52360;SDS011;38294;42.966;1.608;2023-03-23T16:47:18;10.27;;;6.95;;
52360;SDS011;38294;42.966;1.608;2023-03-23T16:49:47;11.52;;;6.93;;
52360;SDS011;38294;42.966;1.608;2023-03-23T16:52:13;15.13;;;8.13;;
52360;SDS011;38294;42.966;1.608;2023-03-23T16:54:38;13.75;;;7.55;;
52360;SDS011;38294;42.966;1.608;2023-03-23T16:57:04;15.82;;;7.78;;
52360;SDS011;38294;42.966;1.608;2023-03-23T16:59:30;11.45;;;7.30;;
52360;SDS011;38294;42.966;1.608;2023-03-23T17:01:56;14.82;;;7.97;;
52360;SDS011;38294;42.966;1.608;2023-03-23T17:04:27;14.90;;;7.65;;
52360;SDS011;38294;42.966;1.608;2023-03-23T17:06:53;13.27;;;7.38;;
52360;SDS011;38294;42.966;1.608;2023-03-23T17:09:18;14.55;;;7.78;;
52360;SDS011;38294;42.966;1.608;2023-03-23T17:11:44;15.90;;;6.78;;
52360;SDS011;38294;42.966;1.608;2023-03-23T17:14:10;19.45;;;7.70;;
52360;SDS011;38294;42.966;1.608;2023-03-23T17:16:35;12.27;;;8.07;;
52360;SDS011;38294;42.966;1.608;2023-03-23T17:19:01;14.10;;;8.05;;
52360;SDS011;38294;42.966;1.608;2023-03-23T17:21:26;16.83;;;7.63;;
52360;SDS011;38294;42.966;1.608;2023-03-23T17:23:52;14.93;;;7.70;;
52360;SDS011;38294;42.966;1.608;2023-03-23T17:26:18;15.52;;;7.93;;
52360;SDS011;38294;42.966;1.608;2023-03-23T17:28:43;13.35;;;7.88;;
52360;SDS011;38294;42.966;1.608;2023-03-23T17:31:09;15.40;;;7.63;;
52360;SDS011;38294;42.966;1.608;2023-03-23T17:33:35;15.25;;;7.40;;
52360;SDS011;38294;42.966;1.608;2023-03-23T17:36:00;15.75;;;7.85;;
52360;SDS011;38294;42.966;1.608;2023-03-23T17:38:26;19.40;;;7.88;;
52360;SDS011;38294;42.966;1.608;2023-03-23T17:40:55;18.63;;;8.25;;
52360;SDS011;38294;42.966;1.608;2023-03-23T17:43:21;13.80;;;7.53;;
52360;SDS011;38294;42.966;1.608;2023-03-23T17:45:47;20.02;;;8.05;;
52360;SDS011;38294;42.966;1.608;2023-03-23T17:48:12;11.85;;;7.43;;
52360;SDS011;38294;42.966;1.608;2023-03-23T17:50:38;20.70;;;7.88;;
52360;SDS011;38294;42.966;1.608;2023-03-23T17:53:03;15.07;;;8.35;;
52360;SDS011;38294;42.966;1.608;2023-03-23T17:55:29;16.00;;;8.55;;
52360;SDS011;38294;42.966;1.608;2023-03-23T17:57:54;17.63;;;8.27;;
52360;SDS011;38294;42.966;1.608;2023-03-23T18:00:20;18.83;;;8.13;;
52360;SDS011;38294;42.966;1.608;2023-03-23T18:02:46;22.17;;;8.50;;
52360;SDS011;38294;42.966;1.608;2023-03-23T18:05:11;14.98;;;8.60;;
52360;SDS011;38294;42.966;1.608;2023-03-23T18:07:37;19.65;;;8.43;;
52360;SDS011;38294;42.966;1.608;2023-03-23T18:10:04;15.88;;;8.68;;
52360;SDS011;38294;42.966;1.608;2023-03-23T18:12:36;13.93;;;8.15;;
52360;SDS011;38294;42.966;1.608;2023-03-23T18:15:02;18.70;;;9.32;;
52360;SDS011;38294;42.966;1.608;2023-03-23T18:17:27;14.52;;;7.85;;
52360;SDS011;38294;42.966;1.608;2023-03-23T18:19:53;17.23;;;8.05;;
52360;SDS011;38294;42.966;1.608;2023-03-23T18:22:19;21.42;;;8.63;;
52360;SDS011;38294;42.966;1.608;2023-03-23T18:24:45;13.77;;;8.63;;
52360;SDS011;38294;42.966;1.608;2023-03-23T18:27:10;17.25;;;8.60;;
52360;SDS011;38294;42.966;1.608;2023-03-23T18:29:36;18.52;;;8.65;;
52360;SDS011;38294;42.966;1.608;2023-03-23T18:32:01;22.13;;;9.07;;
52360;SDS011;38294;42.966;1.608;2023-03-23T18:34:27;23.45;;;8.35;;
52360;SDS011;38294;42.966;1.608;2023-03-23T18:36:52;20.48;;;9.23;;
52360;SDS011;38294;42.966;1.608;2023-03-23T18:39:18;14.02;;;8.10;;
52360;SDS011;38294;42.966;1.608;2023-03-23T18:41:43;19.17;;;8.93;;
52360;SDS011;38294;42.966;1.608;2023-03-23T18:44:09;22.27;;;9.23;;
52360;SDS011;38294;42.966;1.608;2023-03-23T18:46:35;17.95;;;8.98;;
52360;SDS011;38294;42.966;1.608;2023-03-23T18:49:01;19.45;;;8.63;;
52360;SDS011;38294;42.966;1.608;2023-03-23T18:51:27;19.38;;;9.25;;
52360;SDS011;38294;42.966;1.608;2023-03-23T18:53:54;17.67;;;8.95;;
52360;SDS011;38294;42.966;1.608;2023-03-23T18:56:20;20.30;;;9.18;;
52360;SDS011;38294;42.966;1.608;2023-03-23T18:58:46;17.60;;;8.68;;
52360;SDS011;38294;42.966;1.608;2023-03-23T19:01:13;18.58;;;8.93;;
52360;SDS011;38294;42.966;1.608;2023-03-23T19:03:41;18.48;;;9.23;;
52360;SDS011;38294;42.966;1.608;2023-03-23T19:06:28;20.27;;;8.55;;
52360;SDS011;38294;42.966;1.608;2023-03-23T19:08:54;15.98;;;8.50;;
52360;SDS011;38294;42.966;1.608;2023-03-23T19:11:21;20.75;;;9.13;;
52360;SDS011;38294;42.966;1.608;2023-03-23T19:13:49;26.13;;;11.07;;
52360;SDS011;38294;42.966;1.608;2023-03-23T19:16:15;18.83;;;8.90;;
52360;SDS011;38294;42.966;1.608;2023-03-23T19:18:41;16.00;;;8.63;;
52360;SDS011;38294;42.966;1.608;2023-03-23T19:21:06;18.70;;;9.80;;
52360;SDS011;38294;42.966;1.608;2023-03-23T19:23:32;23.88;;;9.00;;
52360;SDS011;38294;42.966;1.608;2023-03-23T19:25:57;19.35;;;9.80;;
52360;SDS011;38294;42.966;1.608;2023-03-23T19:28:23;17.77;;;8.90;;
52360;SDS011;38294;42.966;1.608;2023-03-23T19:30:52;18.88;;;8.18;;
52360;SDS011;38294;42.966;1.608;2023-03-23T19:33:19;22.58;;;9.10;;
52360;SDS011;38294;42.966;1.608;2023-03-23T19:35:49;16.20;;;8.90;;
52360;SDS011;38294;42.966;1.608;2023-03-23T19:38:16;17.73;;;8.40;;
52360;SDS011;38294;42.966;1.608;2023-03-23T19:40:51;21.25;;;9.27;;
52360;SDS011;38294;42.966;1.608;2023-03-23T19:43:25;14.97;;;9.03;;
52360;SDS011;38294;42.966;1.608;2023-03-23T19:45:51;21.05;;;9.45;;
52360;SDS011;38294;42.966;1.608;2023-03-23T19:48:17;21.30;;;9.48;;
52360;SDS011;38294;42.966;1.608;2023-03-23T19:50:43;20.75;;;9.90;;
52360;SDS011;38294;42.966;1.608;2023-03-23T19:53:11;21.15;;;10.13;;
52360;SDS011;38294;42.966;1.608;2023-03-23T19:55:38;18.73;;;9.18;;
52360;SDS011;38294;42.966;1.608;2023-03-23T19:58:03;19.48;;;8.95;;
52360;SDS011;38294;42.966;1.608;2023-03-23T20:00:29;21.30;;;10.45;;
52360;SDS011;38294;42.966;1.608;2023-03-23T20:02:55;25.17;;;11.45;;
52360;SDS011;38294;42.966;1.608;2023-03-23T20:05:21;28.20;;;12.98;;
52360;SDS011;38294;42.966;1.608;2023-03-23T20:07:46;25.88;;;12.80;;
52360;SDS011;38294;42.966;1.608;2023-03-23T20:10:12;25.95;;;11.80;;
52360;SDS011;38294;42.966;1.608;2023-03-23T20:12:37;22.58;;;10.90;;
52360;SDS011;38294;42.966;1.608;2023-03-23T20:15:04;23.42;;;11.13;;
52360;SDS011;38294;42.966;1.608;2023-03-23T20:17:31;24.52;;;10.27;;